SI-0014 weather

Andoljšek - Ribnica UL field
Ribnica, Slovenia

Public forecast

Using degrees Celsius for public forecast. Weather courtesy of forecast.io.

METAR (pilot weather report)

Closest report is Ljubljana Jože Pučnik Airport, 30.7 nm (56.9 km) NNW. Retrieved 2019/09/19 03:30 UTC (0 seconds ago):

LJLJ 190330Z 03001KT 9999 FEW040 BKN060 BKN090 11/10 Q1022 NOSIG

TAF (pilot weather forecast)

Closest forecast is Ljubljana Jože Pučnik Airport, 30.7 nm (56.9 km) NNW. Retrieved 2019/09/19 03:08 UTC (20 seconds ago):

TAF LJLJ 190200Z 1903/2003 VRB02KT 9999 FEW040 BKN060 BECMG 1906/1909 12005KT FEW050 PROB30 TEMPO 1909/1921 BKN040 BECMG 1918/1920 30003KT